Terminal Aerodrome Forecast
Issued by NWS

Home | Current Version | Previous Version | Text Only | Print | Product List | Glossary On
Versions: 1 2 3 4 5 6 7 8 9 10 11 12 13 14 15 16 17
000
FTUS46 KSEW 250521
TAFPAE
TAF
KPAE 250521Z 2506/2606 13012KT P6SM FEW020 BKN030 OVC040
     FM251100 16014KT P6SM SCT100 OVC250
     FM251500 14010KT P6SM BKN120 OVC250
     FM260300 15012KT P6SM -RA OVC050=

USA.gov is the U.S. government's official web portal to all federal, state and local government web resources and services.